INFORMAÇÕES METEOROLÓGICAS
METAR FOR SBHT
ADDS - METARS form results

(1153 UTC 16 February 2019)
Data provider http://aviationweather.gov/metar/data/
 
METAR text: SBHT 161100Z 00000KT 5000 BR BKN013 BKN080 25/24 Q1013
Conditions at: SBHT (ALTAMIRA , BR) observed 1100 UTC 16 February 2019
Temperature: 25.0°C (77°F)
Dewpoint: 24.0°C (75°F) [RH = 94%]
Pressure (altimeter): 29.91 inches Hg (1013.0 mb)
Winds: calm
Visibility: 3 miles ( 5 km)
Ceiling: 1300 feet AGL
Clouds: broken clouds at 1300 feet AGL
broken clouds at 8000 feet AGL
Weather: BR  (mist)

 MAPA DO AEROPORTO

 INFORMAÇÕES DA PISTA
Pista 7 Tamanho da pista 6572 ft Largura da pista 125 ft
Elevação da pista 0 ft Ranhura da pista 0 ft Proa da pista 0
Pista 25 Tamanho da pista 6572 ft Largura da pista 125 ft
Elevação da pista 0 ft Ranhura da pista 0 ft Proa da pista 0

 FREQUÊNCIAS DO AEROPORTO
Tipo AFIS Nome RDO Frequência 125.85 MHZ

 AUXÍLIOS DE NAVEGAÇÃO PRÓXIMOS AO AEROPORTO
Tipo VOR Nome Altamira Frequência 113200 KHZ
Tipo NDB Nome Altamira Frequência 295 KHZ





Powered by Virtual Airlines Manager [v2.6.2]